createdAt,value
2017-09-20T00:02:10.247Z,0.70
2017-09-20T00:04:37.870Z,0.50
2017-09-20T00:07:05.489Z,0.67
2017-09-20T00:09:33.857Z,1.17
2017-09-20T00:12:02.221Z,0.60
2017-09-20T00:14:29.835Z,0.50
2017-09-20T00:16:57.700Z,0.50
2017-09-20T00:19:26.145Z,0.60
2017-09-20T00:21:54.528Z,0.50
2017-09-20T00:24:22.912Z,0.50
2017-09-20T00:26:51.861Z,0.70
2017-09-20T00:29:19.602Z,1.27
2017-09-20T00:31:47.232Z,0.60
2017-09-20T00:34:14.849Z,0.50
2017-09-20T00:36:42.428Z,0.60
2017-09-20T00:39:10.089Z,0.50
2017-09-20T00:41:37.698Z,0.53
2017-09-20T00:44:05.365Z,0.50
2017-09-20T00:46:32.975Z,0.60
2017-09-20T00:49:00.581Z,0.80
2017-09-20T00:51:28.308Z,0.50
2017-09-20T00:53:56.922Z,0.50
2017-09-20T00:56:24.502Z,0.50
2017-09-20T00:58:52.153Z,0.60
2017-09-20T01:01:19.815Z,0.50
2017-09-20T01:03:47.435Z,0.50
2017-09-20T01:06:16.320Z,0.47
2017-09-20T01:08:43.941Z,0.60
2017-09-20T01:11:11.754Z,0.60
2017-09-20T01:13:40.148Z,0.60
2017-09-20T01:16:07.789Z,0.53
2017-09-20T01:18:36.168Z,0.40
2017-09-20T01:21:16.652Z,0.50
2017-09-20T01:23:44.272Z,0.83
2017-09-20T01:26:12.085Z,0.60
2017-09-20T01:28:39.713Z,0.50
2017-09-20T01:31:07.306Z,0.50
2017-09-20T01:33:35.150Z,0.40
2017-09-20T01:36:03.523Z,0.90
2017-09-20T01:38:32.414Z,0.57
2017-09-20T01:41:00.802Z,0.40
2017-09-20T01:43:29.204Z,0.57
2017-09-20T01:45:56.810Z,1.47
2017-09-20T01:48:24.407Z,0.77
2017-09-20T01:50:52.804Z,0.60
2017-09-20T01:53:20.466Z,2.83
2017-09-20T01:55:48.112Z,0.53
2017-09-20T01:58:15.718Z,0.50
2017-09-20T02:00:43.308Z,0.70
2017-09-20T02:03:11.067Z,0.50
2017-09-20T02:05:38.685Z,0.40
2017-09-20T02:08:06.296Z,1.47
2017-09-20T02:10:34.674Z,5.70
2017-09-20T02:13:02.289Z,0.40
2017-09-20T02:15:29.904Z,0.63
2017-09-20T02:17:57.562Z,0.43
2017-09-20T02:20:25.200Z,0.40
2017-09-20T02:22:53.048Z,0.40
2017-09-20T02:25:20.645Z,0.50
2017-09-20T02:27:48.262Z,0.40
2017-09-20T02:30:15.903Z,0.40
2017-09-20T02:32:43.492Z,0.43
2017-09-20T02:35:11.133Z,0.40
2017-09-20T02:37:39.675Z,0.40
2017-09-20T02:40:08.101Z,0.50
2017-09-20T02:42:35.953Z,0.50
2017-09-20T02:45:03.620Z,0.40
2017-09-20T02:47:31.234Z,0.50
2017-09-20T02:49:58.884Z,0.40
2017-09-20T02:52:26.552Z,0.40
2017-09-20T02:54:54.158Z,0.40
2017-09-20T02:57:21.792Z,0.40
2017-09-20T02:59:50.169Z,0.50
2017-09-20T03:02:17.811Z,0.30
2017-09-20T03:04:45.478Z,0.50
2017-09-20T03:07:13.082Z,0.40
2017-09-20T03:09:40.677Z,0.50
2017-09-20T03:12:08.298Z,0.70
2017-09-20T03:14:36.368Z,0.40
2017-09-20T03:17:04.010Z,2.20
2017-09-20T03:19:33.146Z,0.40
2017-09-20T03:22:00.774Z,0.50
2017-09-20T03:24:29.194Z,0.40
2017-09-20T03:26:56.845Z,1.77
2017-09-20T03:29:24.440Z,1.40
2017-09-20T03:31:52.088Z,0.30
2017-09-20T03:34:19.723Z,0.57
2017-09-20T03:36:47.302Z,0.80
2017-09-20T03:39:15.114Z,0.40
2017-09-20T03:41:43.466Z,0.50
2017-09-20T03:44:11.097Z,0.40
2017-09-20T03:46:38.704Z,0.47
2017-09-20T03:49:07.150Z,0.43
2017-09-20T03:51:34.751Z,0.50
2017-09-20T03:54:02.363Z,0.40
2017-09-20T03:56:30.034Z,0.30
2017-09-20T03:58:57.634Z,0.50
2017-09-20T04:01:25.378Z,0.40
2017-09-20T04:03:53.498Z,0.40
2017-09-20T04:06:21.088Z,0.40
2017-09-20T04:08:48.702Z,0.40
2017-09-20T04:11:16.386Z,0.40
2017-09-20T04:13:44.007Z,0.30
2017-09-20T04:16:11.792Z,0.40
2017-09-20T04:18:39.424Z,0.40
2017-09-20T04:21:07.127Z,0.53
2017-09-20T04:23:34.762Z,0.60
2017-09-20T04:26:02.330Z,0.40
2017-09-20T04:28:30.968Z,0.40
2017-09-20T04:30:58.608Z,0.30
2017-09-20T04:33:26.400Z,0.33
2017-09-20T04:35:54.016Z,0.40
2017-09-20T04:38:22.432Z,0.50
2017-09-20T04:40:50.081Z,0.40
2017-09-20T04:43:17.684Z,0.30
2017-09-20T04:45:45.296Z,0.40
2017-09-20T04:48:12.980Z,0.30
2017-09-20T04:50:40.572Z,0.50
2017-09-20T04:53:08.301Z,0.40
2017-09-20T04:55:36.096Z,0.40
2017-09-20T04:58:04.476Z,0.40
2017-09-20T05:00:32.926Z,0.30
2017-09-20T05:03:00.572Z,0.40
2017-09-20T05:05:28.188Z,0.30
2017-09-20T05:07:56.799Z,0.37
2017-09-20T05:10:24.430Z,0.40
2017-09-20T05:12:52.148Z,0.60
2017-09-20T05:15:19.836Z,0.67
2017-09-20T05:17:47.435Z,0.40
2017-09-20T05:20:15.115Z,0.30
2017-09-20T05:22:42.942Z,0.43
2017-09-20T05:25:10.650Z,0.40
2017-09-20T05:27:39.225Z,0.40
2017-09-20T05:30:07.761Z,0.40
2017-09-20T05:32:35.440Z,0.47
2017-09-20T05:35:04.693Z,0.50
2017-09-20T05:37:32.276Z,2.50
2017-09-20T05:40:00.666Z,9.43
2017-09-20T05:42:29.278Z,3.57
2017-09-20T05:44:56.905Z,3.40
2017-09-20T05:47:24.555Z,2.00
2017-09-20T05:49:52.134Z,1.23
2017-09-20T05:52:19.744Z,5.17
2017-09-20T05:54:47.344Z,9.63
2017-09-20T05:57:15.036Z,3.80
2017-09-20T05:59:43.579Z,2.70
2017-09-20T06:02:11.171Z,10.70
2017-09-20T06:04:39.812Z,19.30
2017-09-20T06:07:07.455Z,7.40
2017-09-20T06:09:35.044Z,3.23
2017-09-20T06:12:02.695Z,9.60
2017-09-20T06:14:30.356Z,13.77
2017-09-20T06:16:57.954Z,4.60
2017-09-20T06:19:26.326Z,7.10
2017-09-20T06:21:53.960Z,10.60
2017-09-20T06:24:21.610Z,5.50
2017-09-20T06:26:49.216Z,10.77
2017-09-20T06:29:16.893Z,11.77
2017-09-20T06:31:45.292Z,2.40
2017-09-20T06:34:12.968Z,2.67
2017-09-20T06:36:40.546Z,8.27
2017-09-20T06:39:08.170Z,4.20
2017-09-20T06:41:35.841Z,8.77
2017-09-20T06:44:03.456Z,4.43
2017-09-20T06:46:32.610Z,12.17
2017-09-20T06:49:00.364Z,5.70
2017-09-20T06:51:27.952Z,3.47
2017-09-20T06:53:55.544Z,4.87
2017-09-20T06:56:23.363Z,3.00
2017-09-20T06:58:50.966Z,5.37
2017-09-20T07:01:18.608Z,14.10
2017-09-20T07:03:46.254Z,5.77
2017-09-20T07:06:14.054Z,5.17
2017-09-20T07:08:41.662Z,8.60
2017-09-20T07:11:09.331Z,2.50
2017-09-20T07:13:37.068Z,3.73
2017-09-20T07:16:05.404Z,2.53
2017-09-20T07:18:33.037Z,1.43
2017-09-20T07:21:00.688Z,10.40
2017-09-20T07:23:28.298Z,3.10
2017-09-20T07:25:55.868Z,6.30
2017-09-20T07:28:23.495Z,3.20
2017-09-20T07:30:51.089Z,5.60
2017-09-20T07:33:18.715Z,3.30
2017-09-20T07:35:46.338Z,7.40
2017-09-20T07:38:14.016Z,3.20
2017-09-20T07:40:41.786Z,10.70
2017-09-20T07:43:09.504Z,11.23
2017-09-20T07:45:37.934Z,4.77
2017-09-20T07:48:05.528Z,3.87
2017-09-20T07:50:33.110Z,4.40
2017-09-20T07:53:01.504Z,3.70
2017-09-20T07:55:29.868Z,5.03
2017-09-20T07:57:58.243Z,4.13
2017-09-20T08:00:26.710Z,5.43
2017-09-20T08:02:54.276Z,2.10
2017-09-20T08:05:22.035Z,1.90
2017-09-20T08:07:49.646Z,3.90
2017-09-20T08:10:17.254Z,2.97
2017-09-20T08:12:44.850Z,4.33
2017-09-20T08:15:12.568Z,12.90
2017-09-20T08:17:40.184Z,8.43
2017-09-20T08:20:07.776Z,3.13
2017-09-20T08:22:35.646Z,15.97
2017-09-20T08:25:03.269Z,3.10
2017-09-20T08:27:31.077Z,4.40
2017-09-20T08:29:58.645Z,7.30
2017-09-20T08:32:26.262Z,5.80
2017-09-20T08:34:53.902Z,17.33
2017-09-20T08:37:21.479Z,1.13
2017-09-20T08:39:49.112Z,6.30
2017-09-20T08:42:17.494Z,3.57
2017-09-20T08:44:46.096Z,9.53
2017-09-20T08:47:14.646Z,1.30
2017-09-20T08:49:42.232Z,5.10
2017-09-20T08:52:10.831Z,1.57
2017-09-20T08:54:38.566Z,8.93
2017-09-20T08:57:07.111Z,2.10
2017-09-20T08:59:34.716Z,2.20
2017-09-20T09:02:02.340Z,4.33
2017-09-20T09:04:29.936Z,38.70
2017-09-20T09:07:01.866Z,21.83
2017-09-20T09:09:29.474Z,20.77
2017-09-20T09:11:58.750Z,20.73
2017-09-20T09:14:27.145Z,9.03
2017-09-20T09:16:54.770Z,8.43
2017-09-20T09:19:22.414Z,7.10
2017-09-20T09:21:50.068Z,10.87
2017-09-20T09:24:17.828Z,4.20
2017-09-20T09:26:45.417Z,1.67
2017-09-20T09:29:13.024Z,9.77
2017-09-20T09:31:40.645Z,7.10
2017-09-20T09:34:08.237Z,1.47
2017-09-20T09:36:36.432Z,5.63
2017-09-20T09:39:04.084Z,3.00
2017-09-20T09:41:31.702Z,1.53
2017-09-20T09:43:59.310Z,6.83
2017-09-20T09:46:27.004Z,3.00
2017-09-20T09:48:55.117Z,11.17
2017-09-20T09:51:23.770Z,10.93
2017-09-20T09:53:51.428Z,4.37
2017-09-20T09:56:19.100Z,6.63
2017-09-20T09:58:46.714Z,2.80
2017-09-20T10:01:14.738Z,4.80
2017-09-20T10:03:43.214Z,1.30
2017-09-20T10:06:10.864Z,2.57
2017-09-20T10:08:38.625Z,7.00
2017-09-20T10:11:08.107Z,3.07
2017-09-20T10:13:35.889Z,3.00
2017-09-20T10:16:03.507Z,2.93
2017-09-20T10:18:31.436Z,1.40
2017-09-20T10:20:59.202Z,1.37
2017-09-20T10:23:26.839Z,1.07
2017-09-20T10:25:54.461Z,2.40
2017-09-20T10:28:22.060Z,2.10
2017-09-20T10:30:49.898Z,1.73
2017-09-20T10:33:17.587Z,1.33
2017-09-20T10:35:45.256Z,4.33
2017-09-20T10:38:12.842Z,1.47
2017-09-20T10:40:40.473Z,4.53
2017-09-20T10:43:08.061Z,1.50
2017-09-20T10:45:35.684Z,2.43
2017-09-20T10:48:03.324Z,6.20
2017-09-20T10:50:30.948Z,3.13
2017-09-20T10:52:58.540Z,7.63
2017-09-20T10:55:26.283Z,6.00
2017-09-20T10:57:54.640Z,3.83
2017-09-20T11:00:23.032Z,4.20
2017-09-20T11:02:50.977Z,2.50
2017-09-20T11:05:19.362Z,0.83
2017-09-20T11:07:47.615Z,4.73
2017-09-20T11:10:16.178Z,1.30
2017-09-20T11:12:43.780Z,3.00
2017-09-20T11:15:11.350Z,1.60
2017-09-20T11:17:38.974Z,10.40
2017-09-20T11:20:06.600Z,3.03
2017-09-20T11:22:34.192Z,1.53
2017-09-20T11:25:01.814Z,0.70
2017-09-20T11:27:30.194Z,2.00
2017-09-20T11:29:58.599Z,2.40
2017-09-20T11:32:26.216Z,1.27
2017-09-20T11:34:53.850Z,2.60
2017-09-20T11:37:21.432Z,4.63
2017-09-20T11:39:49.038Z,4.30
2017-09-20T11:42:16.648Z,3.27
2017-09-20T11:44:44.364Z,0.83
2017-09-20T11:47:12.164Z,1.70
2017-09-20T11:49:39.821Z,1.07
2017-09-20T11:52:07.403Z,0.70
2017-09-20T11:54:34.990Z,1.33
2017-09-20T11:57:02.618Z,1.80
2017-09-20T11:59:30.468Z,0.70
2017-09-20T12:01:58.060Z,3.10
2017-09-20T12:04:26.473Z,4.20
2017-09-20T12:06:54.052Z,1.23
2017-09-20T12:09:21.649Z,1.23
2017-09-20T12:11:49.254Z,1.20
2017-09-20T12:16:50.896Z,4.57
2017-09-20T12:19:19.284Z,1.23
2017-09-20T12:21:47.658Z,1.10
2017-09-20T12:24:15.232Z,0.80
2017-09-20T12:26:42.853Z,1.20
2017-09-20T12:29:11.987Z,6.60
2017-09-20T12:31:39.712Z,1.73
2017-09-20T12:34:07.455Z,2.20
2017-09-20T12:36:35.074Z,1.40
2017-09-20T12:39:02.769Z,0.60
2017-09-20T12:41:30.368Z,0.83
2017-09-20T12:43:58.128Z,2.83
2017-09-20T12:46:25.738Z,6.57
2017-09-20T12:48:53.622Z,0.70
2017-09-20T12:51:21.264Z,0.70
2017-09-20T12:53:48.967Z,5.50
2017-09-20T12:56:16.748Z,0.70
2017-09-20T12:58:44.404Z,0.77
2017-09-20T13:01:12.080Z,6.20
2017-09-20T13:03:39.823Z,5.00
2017-09-20T13:06:07.454Z,2.33
2017-09-20T13:08:35.050Z,0.73
2017-09-20T13:11:02.680Z,4.23
2017-09-20T13:13:30.359Z,1.87
2017-09-20T13:15:57.909Z,4.07
2017-09-20T13:18:25.642Z,0.70
2017-09-20T13:20:53.242Z,1.60
2017-09-20T13:23:20.837Z,1.83
2017-09-20T13:25:49.279Z,4.10
2017-09-20T13:28:16.859Z,2.30
2017-09-20T13:30:44.512Z,0.70
2017-09-20T13:33:12.298Z,6.43
2017-09-20T13:35:40.644Z,0.83
2017-09-20T13:38:08.297Z,0.73
2017-09-20T13:40:35.933Z,1.63
2017-09-20T13:43:03.548Z,1.10
2017-09-20T13:45:31.227Z,11.13
2017-09-20T13:47:59.578Z,1.47
2017-09-20T13:50:27.334Z,1.20
2017-09-20T13:52:54.968Z,0.73
2017-09-20T13:55:22.570Z,0.70
2017-09-20T13:57:50.206Z,0.60
2017-09-20T14:00:17.792Z,13.23
2017-09-20T14:02:46.866Z,2.33
2017-09-20T14:05:14.494Z,9.50
2017-09-20T14:07:42.086Z,0.60
2017-09-20T14:10:09.706Z,0.60
2017-09-20T14:12:38.187Z,0.70
2017-09-20T14:15:06.822Z,3.40
2017-09-20T14:17:34.400Z,5.50
2017-09-20T14:20:02.037Z,0.63
2017-09-20T14:22:29.614Z,5.90
2017-09-20T14:24:57.181Z,1.23
2017-09-20T14:27:24.784Z,4.43
2017-09-20T14:29:52.539Z,12.93
2017-09-20T14:32:20.113Z,3.93
2017-09-20T14:34:47.761Z,6.73
2017-09-20T14:37:15.368Z,19.23
2017-09-20T14:39:42.956Z,0.93
2017-09-20T14:42:11.342Z,1.97
2017-09-20T14:44:39.710Z,3.37
2017-09-20T14:47:07.337Z,0.90
2017-09-20T14:49:35.017Z,2.40
2017-09-20T14:52:02.952Z,6.43
2017-09-20T14:54:30.552Z,4.03
2017-09-20T14:56:58.208Z,1.70
2017-09-20T14:59:25.814Z,0.60
2017-09-20T15:01:53.407Z,0.77
2017-09-20T15:04:21.040Z,0.83
2017-09-20T15:06:48.644Z,0.63
2017-09-20T15:09:16.224Z,0.70
2017-09-20T15:11:43.965Z,0.90
2017-09-20T15:14:11.723Z,3.13
2017-09-20T15:16:39.358Z,0.60
2017-09-20T15:19:07.001Z,1.03
2017-09-20T15:21:34.760Z,3.27
2017-09-20T15:24:02.407Z,2.70
2017-09-20T15:26:30.769Z,1.40
2017-09-20T15:28:58.382Z,0.90
2017-09-20T15:31:25.993Z,4.50
2017-09-20T15:33:53.572Z,2.27
2017-09-20T15:36:21.957Z,0.60
2017-09-20T15:38:50.349Z,1.30
2017-09-20T15:41:18.029Z,1.47
2017-09-20T15:43:45.608Z,0.60
2017-09-20T15:46:13.340Z,0.77
2017-09-20T15:48:40.958Z,1.57
2017-09-20T15:51:08.817Z,0.73
2017-09-20T15:53:36.442Z,0.60
2017-09-20T15:56:04.080Z,4.43
2017-09-20T15:58:31.807Z,0.60
2017-09-20T16:00:59.436Z,0.70
2017-09-20T16:03:27.018Z,9.53
2017-09-20T16:05:54.621Z,2.77
2017-09-20T16:08:23.129Z,0.50
2017-09-20T16:10:50.746Z,1.43
2017-09-20T16:13:19.133Z,0.70
2017-09-20T16:15:46.763Z,7.57
2017-09-20T16:18:14.366Z,6.07
2017-09-20T16:20:42.779Z,5.47
2017-09-20T16:23:10.380Z,3.40
2017-09-20T16:25:37.973Z,2.03
2017-09-20T16:28:05.603Z,9.73
2017-09-20T16:30:33.295Z,31.07
2017-09-20T16:33:01.107Z,330.60
2017-09-20T16:35:28.685Z,777.13
2017-09-20T16:37:56.360Z,748.63
2017-09-20T16:40:24.794Z,767.10
2017-09-20T16:42:52.391Z,603.47
2017-09-20T16:45:20.036Z,329.13
2017-09-20T16:47:47.660Z,135.37
2017-09-20T16:50:15.247Z,100.20
2017-09-20T16:52:42.971Z,88.37
2017-09-20T16:55:10.654Z,82.70
2017-09-20T16:57:38.325Z,87.47
2017-09-20T17:00:06.427Z,77.20
2017-09-20T17:02:34.020Z,81.73
2017-09-20T17:05:01.957Z,100.40
2017-09-20T17:07:29.597Z,78.27
2017-09-20T17:09:57.260Z,104.63
2017-09-20T17:12:24.874Z,79.37
2017-09-20T17:14:52.483Z,80.13
2017-09-20T17:17:20.093Z,65.97
2017-09-20T17:19:47.699Z,81.37
2017-09-20T17:22:15.467Z,83.07
2017-09-20T17:24:43.077Z,71.13
2017-09-20T17:27:11.427Z,60.10
2017-09-20T17:29:39.079Z,61.13
2017-09-20T17:32:06.909Z,80.13
2017-09-20T17:34:34.496Z,68.50
2017-09-20T17:37:02.953Z,65.17
2017-09-20T17:39:30.570Z,60.47
2017-09-20T17:41:58.916Z,61.00
2017-09-20T17:44:26.533Z,63.13
2017-09-20T17:46:54.150Z,49.43
2017-09-20T17:49:21.752Z,52.77
2017-09-20T17:51:49.533Z,60.73
2017-09-20T17:54:18.117Z,47.67
2017-09-20T17:56:45.768Z,47.10
2017-09-20T17:59:13.373Z,57.13
2017-09-20T18:01:40.979Z,74.17
2017-09-20T18:04:08.607Z,52.23
2017-09-20T18:06:36.201Z,60.53
2017-09-20T18:09:03.837Z,36.33
2017-09-20T18:11:32.209Z,52.93
2017-09-20T18:13:59.862Z,48.83
2017-09-20T18:16:27.522Z,41.87
2017-09-20T18:18:55.107Z,83.70
2017-09-20T18:21:23.555Z,43.07
2017-09-20T18:23:51.197Z,47.03
2017-09-20T18:26:18.811Z,40.33
2017-09-20T18:28:47.224Z,45.60
2017-09-20T18:31:14.797Z,59.87
2017-09-20T18:33:42.512Z,40.20
2017-09-20T18:36:10.955Z,56.07
2017-09-20T18:38:38.819Z,27.67
2017-09-20T18:41:07.368Z,43.87
2017-09-20T18:43:35.013Z,48.33
2017-09-20T18:46:03.389Z,34.50
2017-09-20T18:48:31.807Z,34.83
2017-09-20T18:50:59.464Z,39.40
2017-09-20T18:53:27.057Z,44.50
2017-09-20T18:55:55.437Z,31.47
2017-09-20T18:58:23.085Z,28.37
2017-09-20T19:00:50.722Z,27.83
2017-09-20T19:03:18.341Z,33.17
2017-09-20T19:05:46.709Z,31.83
2017-09-20T19:08:14.373Z,30.93
2017-09-20T19:10:42.743Z,30.60
2017-09-20T19:13:10.461Z,26.67
2017-09-20T19:15:38.228Z,28.50
2017-09-20T19:18:05.885Z,31.87
2017-09-20T19:20:33.503Z,35.97
2017-09-20T19:23:01.987Z,22.77
2017-09-20T19:25:30.477Z,35.23
2017-09-20T19:27:58.851Z,32.87
2017-09-20T19:30:27.232Z,25.83
2017-09-20T19:32:55.625Z,25.77
2017-09-20T19:35:23.243Z,23.17
2017-09-20T19:37:50.848Z,26.03
2017-09-20T19:40:18.738Z,30.30
2017-09-20T19:42:46.379Z,21.43
2017-09-20T19:45:13.979Z,26.20
2017-09-20T19:47:41.607Z,22.40
2017-09-20T19:50:09.371Z,19.03
2017-09-20T19:52:36.973Z,33.87
2017-09-20T19:55:04.613Z,27.80
2017-09-20T19:57:32.215Z,36.53
2017-09-20T20:00:00.041Z,25.60
2017-09-20T20:02:27.674Z,21.83
2017-09-20T20:04:55.250Z,28.30
2017-09-20T20:07:22.908Z,25.50
2017-09-20T20:09:50.564Z,23.73
2017-09-20T20:12:18.211Z,32.10
2017-09-20T20:14:46.605Z,22.07
2017-09-20T20:17:14.332Z,19.97
2017-09-20T20:19:41.919Z,15.70
2017-09-20T20:22:09.529Z,20.77
2017-09-20T20:24:37.184Z,15.80
2017-09-20T20:27:04.791Z,34.03
2017-09-20T20:29:33.215Z,21.43
2017-09-20T20:32:00.813Z,17.40
2017-09-20T20:34:29.953Z,20.70
2017-09-20T20:36:57.593Z,22.73
2017-09-20T20:39:26.046Z,13.10
2017-09-20T20:41:53.644Z,27.63
2017-09-20T20:44:21.249Z,21.70
2017-09-20T20:46:48.868Z,24.40
2017-09-20T20:49:16.645Z,19.90
2017-09-20T20:51:44.245Z,16.50
2017-09-20T20:54:11.868Z,15.03
2017-09-20T20:56:39.454Z,15.33
2017-09-20T20:59:07.068Z,16.30
2017-09-20T21:01:35.425Z,19.77
2017-09-20T21:04:03.803Z,17.77
2017-09-20T21:06:32.223Z,12.73
2017-09-20T21:08:59.991Z,13.37
2017-09-20T21:11:27.573Z,12.53
2017-09-20T21:13:55.183Z,13.97
2017-09-20T21:16:23.627Z,21.23
2017-09-20T21:18:52.253Z,14.37
2017-09-20T21:21:19.841Z,10.83
2017-09-20T21:23:47.455Z,16.63
2017-09-20T21:26:15.866Z,17.77
2017-09-20T21:28:43.465Z,19.70
2017-09-20T21:31:11.054Z,12.80
2017-09-20T21:33:39.464Z,14.80
2017-09-20T21:36:07.093Z,12.53
2017-09-20T21:38:35.533Z,14.00
2017-09-20T21:41:03.221Z,12.80
2017-09-20T21:43:32.328Z,13.50
2017-09-20T21:45:59.974Z,21.30
2017-09-20T21:48:27.582Z,14.90
2017-09-20T21:50:55.293Z,9.30
2017-09-20T21:53:22.888Z,16.83
2017-09-20T21:55:50.546Z,13.83
2017-09-20T21:58:19.063Z,12.60
2017-09-20T22:00:46.662Z,11.37
2017-09-20T22:03:14.302Z,15.30
2017-09-20T22:05:41.940Z,13.80
2017-09-20T22:08:09.555Z,13.00
2017-09-20T22:10:37.125Z,12.43
2017-09-20T22:13:05.569Z,14.73
2017-09-20T22:15:45.155Z,14.03
2017-09-20T22:18:24.570Z,9.30
2017-09-20T22:21:04.044Z,14.73
2017-09-20T22:23:43.728Z,11.60
2017-09-20T22:26:23.336Z,11.30
2017-09-20T22:28:50.970Z,6.53
2017-09-20T22:31:19.310Z,7.80
2017-09-20T22:33:46.881Z,10.73
2017-09-20T22:36:14.508Z,8.23
2017-09-20T22:38:42.093Z,8.83
2017-09-20T22:41:09.684Z,17.80
2017-09-20T22:43:37.300Z,10.80
2017-09-20T22:46:04.912Z,10.80
2017-09-20T22:48:33.298Z,9.87
2017-09-20T22:51:01.696Z,10.60
2017-09-20T22:53:29.329Z,9.27
2017-09-20T22:55:57.762Z,6.60
2017-09-20T22:58:25.340Z,9.90
2017-09-20T23:00:53.010Z,18.47
2017-09-20T23:03:20.735Z,7.40
2017-09-20T23:05:48.308Z,7.67
2017-09-20T23:08:15.906Z,9.57
2017-09-20T23:10:44.306Z,8.57
2017-09-20T23:13:12.760Z,9.33
2017-09-20T23:15:40.379Z,4.57
2017-09-20T23:18:07.978Z,6.70
2017-09-20T23:20:35.605Z,14.90
2017-09-20T23:23:03.258Z,6.97
2017-09-20T23:25:30.860Z,9.83
2017-09-20T23:27:58.438Z,4.40
2017-09-20T23:30:26.804Z,5.60
2017-09-20T23:32:55.265Z,6.33
2017-09-20T23:35:22.918Z,7.53
2017-09-20T23:37:50.471Z,6.63
2017-09-20T23:40:18.073Z,10.23
2017-09-20T23:42:45.708Z,8.77
2017-09-20T23:45:13.282Z,11.23
2017-09-20T23:47:40.872Z,4.63
2017-09-20T23:50:09.262Z,5.10
2017-09-20T23:52:36.835Z,8.00
2017-09-20T23:55:04.432Z,7.10
2017-09-20T23:57:32.052Z,5.47
2017-09-20T23:59:59.683Z,3.47
